Time;durP1;ratioP1;P1;durP2;ratioP2;P2;SDS_P1;SDS_P2;PMS_P1;PMS_P2;Temp;Humidity;BMP_temperature;BMP_pressure;BME280_temperature;BME280_humidity;BME280_pressure;Samples;Min_cycle;Max_cycle;Signal;HPM_P1;HPM_P2
2022/03/07 00:01:24;;;;;;;3.47;1.27;;;-1.10;96.00;-1.60;97806.00;;;;4939250;28;90405;-63
2022/03/07 00:03:53;;;;;;;2.97;1.15;;;-1.10;96.20;-1.60;97804.00;;;;4938992;28;86944;-68
2022/03/07 00:06:20;;;;;;;2.83;1.17;;;-1.10;96.10;-1.60;97809.00;;;;4925154;28;87320;-68
2022/03/07 00:08:46;;;;;;;1.83;1.13;;;-1.10;96.00;-1.60;97797.00;;;;4943419;28;87594;-68
2022/03/07 00:11:13;;;;;;;2.70;1.23;;;-1.10;95.90;-1.60;97798.00;;;;4944306;28;87534;-69
2022/03/07 00:13:39;;;;;;;1.27;0.82;;;-1.10;95.90;-1.60;97798.00;;;;4940691;28;87323;-67
2022/03/07 00:16:06;;;;;;;2.38;1.23;;;-1.10;95.60;-1.60;97806.00;;;;4926142;28;86340;-67
2022/03/07 00:18:32;;;;;;;1.85;1.10;;;-1.10;95.80;-1.60;97798.00;;;;4925733;28;89096;-69
2022/03/07 00:20:58;;;;;;;2.38;1.10;;;-1.10;95.80;-1.50;97796.00;;;;4943083;28;87563;-68
2022/03/07 00:23:24;;;;;;;2.22;1.20;;;-1.10;95.90;-1.60;97787.00;;;;4910147;28;88487;-69
2022/03/07 00:25:51;;;;;;;3.05;1.20;;;-1.10;96.00;-1.60;97793.00;;;;4943489;28;87129;-69
2022/03/07 00:28:17;;;;;;;2.28;1.02;;;-1.10;96.20;-1.60;97798.00;;;;4941783;28;87971;-69
2022/03/07 00:30:43;;;;;;;2.55;1.05;;;-1.10;96.20;-1.60;97787.00;;;;4941908;28;87016;-69
2022/03/07 00:33:10;;;;;;;1.50;1.10;;;-1.10;96.30;-1.60;97788.00;;;;4941555;28;87470;-69
2022/03/07 00:35:36;;;;;;;2.03;1.10;;;-1.10;96.40;-1.60;97779.00;;;;4925121;28;86960;-64
2022/03/07 00:38:03;;;;;;;2.17;1.20;;;-1.10;96.50;-1.60;97786.00;;;;4941030;28;88628;-64
2022/03/07 00:40:29;;;;;;;1.63;1.15;;;-1.10;96.40;-1.60;97778.00;;;;4924948;28;88404;-64
2022/03/07 00:42:55;;;;;;;1.95;1.20;;;-1.10;96.50;-1.60;97777.00;;;;4942204;28;87761;-64
2022/03/07 00:45:22;;;;;;;3.33;1.30;;;-1.10;96.40;-1.60;97782.00;;;;4943037;28;87332;-63
2022/03/07 00:47:49;;;;;;;1.83;1.08;;;-1.10;96.40;-1.60;97775.00;;;;4908451;28;89497;-63
2022/03/07 00:50:15;;;;;;;2.08;1.10;;;-1.10;96.20;-1.60;97785.00;;;;4942383;28;89150;-63
2022/03/07 00:52:41;;;;;;;1.80;1.00;;;-1.10;96.20;-1.60;97790.00;;;;4938546;28;87015;-63
2022/03/07 00:55:09;;;;;;;1.75;1.10;;;-1.00;96.10;-1.50;97783.00;;;;4941131;28;87043;-63
2022/03/07 00:57:37;;;;;;;1.48;0.90;;;-1.00;96.20;-1.60;97785.00;;;;4941064;28;87530;-63
2022/03/07 01:00:05;;;;;;;1.95;1.10;;;-1.00;96.30;-1.60;97788.00;;;;4940178;28;89876;-65
2022/03/07 01:02:32;;;;;;;4.10;1.23;;;-1.10;96.20;-1.60;97771.00;;;;4922041;28;87403;-63
2022/03/07 01:04:59;;;;;;;3.08;1.13;;;-1.10;96.30;-1.60;97777.00;;;;4940597;28;86252;-64
2022/03/07 01:07:25;;;;;;;3.97;1.10;;;-1.10;96.40;-1.60;97771.00;;;;4940505;28;87714;-64
2022/03/07 01:09:52;;;;;;;2.97;1.30;;;-1.10;96.30;-1.60;97766.00;;;;4937905;28;89094;-65
2022/03/07 01:12:19;;;;;;;2.55;1.40;;;-1.10;96.20;-1.60;97758.00;;;;4925064;28;87991;-64
2022/03/07 01:14:45;;;;;;;2.30;1.10;;;-1.10;96.30;-1.60;97756.00;;;;4940564;28;87375;-69
2022/03/07 01:17:11;;;;;;;4.40;1.20;;;-1.10;96.20;-1.60;97758.00;;;;4939379;28;87462;-67
2022/03/07 01:19:38;;;;;;;2.80;1.00;;;-1.00;96.60;-1.60;97761.00;;;;4922558;28;90557;-67
2022/03/07 01:22:04;;;;;;;2.72;1.20;;;-1.10;96.30;-1.60;97761.00;;;;4942245;28;87467;-68
2022/03/07 01:24:31;;;;;;;4.30;1.50;;;-1.10;96.40;-1.60;97753.00;;;;4940760;28;87651;-66
2022/03/07 01:26:57;;;;;;;5.00;1.63;;;-1.10;96.50;-1.60;97751.00;;;;4940092;28;87093;-67
2022/03/07 01:29:24;;;;;;;4.63;1.83;;;-1.10;96.50;-1.60;97756.00;;;;4941653;28;87297;-67
2022/03/07 01:31:52;;;;;;;4.65;1.42;;;-1.10;96.50;-1.60;97758.00;;;;4935834;28;87534;-68
2022/03/07 01:34:18;;;;;;;3.90;1.67;;;-1.00;96.60;-1.60;97751.00;;;;4940540;28;87061;-67
2022/03/07 01:36:45;;;;;;;3.45;1.50;;;-1.10;96.50;-1.60;97747.00;;;;4923302;28;91283;-68
2022/03/07 01:39:11;;;;;;;4.88;1.65;;;-1.10;96.60;-1.60;97755.00;;;;4940227;28;88273;-66
2022/03/07 01:41:38;;;;;;;3.50;1.70;;;-1.10;96.60;-1.70;97747.00;;;;4943183;28;88037;-67
2022/03/07 01:44:15;;;;;;;3.88;1.30;;;-1.10;96.70;-1.60;97750.00;;;;4923978;28;87151;-67
2022/03/07 01:46:41;;;;;;;3.20;1.40;;;-1.10;96.70;-1.70;97755.00;;;;4938497;28;89104;-66
2022/03/07 01:49:09;;;;;;;5.45;1.88;;;-1.20;96.70;-1.70;97747.00;;;;4941170;28;87923;-67
2022/03/07 01:51:35;;;;;;;2.75;1.20;;;-1.10;96.80;-1.70;97753.00;;;;4938056;28;88991;-68
2022/03/07 01:54:02;;;;;;;3.63;1.60;;;-1.20;96.70;-1.70;97747.00;;;;4940238;28;87315;-68
2022/03/07 01:56:29;;;;;;;2.35;1.30;;;-1.20;96.80;-1.70;97753.00;;;;4901863;28;87480;-67
2022/03/07 01:58:56;;;;;;;3.53;1.40;;;-1.20;96.80;-1.70;97750.00;;;;4940270;28;87262;-67
2022/03/07 02:01:22;;;;;;;5.60;1.67;;;-1.20;96.80;-1.70;97739.00;;;;4922012;28;88387;-67
2022/03/07 02:03:49;;;;;;;4.60;1.52;;;-1.20;96.90;-1.70;97740.00;;;;4940123;28;87469;-67
2022/03/07 02:06:16;;;;;;;5.15;1.45;;;-1.20;96.90;-1.70;97748.00;;;;4923416;28;87816;-68
2022/03/07 02:08:43;;;;;;;5.30;1.65;;;-1.20;96.90;-1.70;97747.00;;;;4938381;28;88367;-67
2022/03/07 02:11:16;;;;;;;5.47;1.60;;;-1.20;96.90;-1.70;97744.00;;;;4922516;28;86994;-67
2022/03/07 02:13:45;;;;;;;3.10;1.70;;;-1.20;96.90;-1.70;97750.00;;;;4939697;28;87481;-67
2022/03/07 02:16:14;;;;;;;2.53;1.10;;;-1.20;96.90;-1.70;97744.00;;;;4927558;28;88886;-67
2022/03/07 02:18:41;;;;;;;4.15;1.55;;;-1.20;96.90;-1.70;97738.00;;;;4931152;28;87549;-67
2022/03/07 02:21:17;;;;;;;6.70;1.63;;;-1.20;96.90;-1.70;97748.00;;;;4945233;28;87299;-67
2022/03/07 02:23:55;;;;;;;2.75;1.55;;;-1.20;96.80;-1.70;97756.00;;;;4941577;28;87328;-67
2022/03/07 02:26:22;;;;;;;4.82;1.45;;;-1.20;96.90;-1.70;97756.00;;;;4941982;28;89786;-67
2022/03/07 02:28:51;;;;;;;5.53;2.03;;;-1.20;96.90;-1.70;97750.00;;;;4926621;28;91738;-67
2022/03/07 02:31:22;;;;;;;3.80;1.55;;;-1.20;96.90;-1.70;97759.00;;;;4927330;28;87378;-67
2022/03/07 02:33:51;;;;;;;3.17;1.40;;;-1.20;96.90;-1.70;97760.00;;;;4942833;28;87114;-67
2022/03/07 02:36:19;;;;;;;3.47;1.40;;;-1.20;96.90;-1.70;97758.00;;;;4942167;28;88751;-67
2022/03/07 02:38:47;;;;;;;4.70;1.50;;;-1.20;96.90;-1.70;97767.00;;;;4926660;28;88706;-67
2022/03/07 02:41:14;;;;;;;4.47;1.60;;;-1.20;96.90;-1.70;97756.00;;;;4940786;28;87328;-67
2022/03/07 02:43:41;;;;;;;4.97;1.38;;;-1.20;96.90;-1.70;97756.00;;;;4942519;28;86195;-68
2022/03/07 02:46:08;;;;;;;4.22;1.75;;;-1.20;96.90;-1.70;97756.00;;;;4942716;28;87686;-67
2022/03/07 02:48:34;;;;;;;2.95;1.60;;;-1.20;97.00;-1.70;97746.00;;;;4943017;28;87508;-67
2022/03/07 02:51:01;;;;;;;4.55;1.90;;;-1.20;97.00;-1.70;97754.00;;;;4941660;28;88268;-67
2022/03/07 02:53:28;;;;;;;9.38;4.25;;;-1.20;97.00;-1.70;97759.00;;;;4942533;28;86976;-67
2022/03/07 02:55:55;;;;;;;11.90;3.60;;;-1.20;97.10;-1.70;97759.00;;;;4942872;28;87850;-67
2022/03/07 02:58:21;;;;;;;12.30;5.85;;;-1.30;97.00;-1.70;97758.00;;;;4943267;28;88310;-67
2022/03/07 03:00:48;;;;;;;4.90;2.03;;;-1.20;97.20;-1.70;97768.00;;;;4943920;28;87539;-67
2022/03/07 03:03:14;;;;;;;8.93;2.70;;;-1.20;97.10;-1.70;97766.00;;;;4938763;28;88559;-67
2022/03/07 03:05:41;;;;;;;4.05;1.80;;;-1.20;97.10;-1.80;97767.00;;;;4942879;28;87621;-67
2022/03/07 03:08:07;;;;;;;3.72;2.00;;;-1.30;97.10;-1.70;97775.00;;;;4942700;28;89409;-68
2022/03/07 03:10:34;;;;;;;4.18;1.63;;;-1.20;97.10;-1.80;97771.00;;;;4926093;28;87175;-68
2022/03/07 03:13:00;;;;;;;5.70;2.13;;;-1.30;97.10;-1.70;97775.00;;;;4943039;28;87001;-69
2022/03/07 03:15:27;;;;;;;3.63;1.50;;;-1.30;97.20;-1.70;97765.00;;;;4942912;28;88602;-67
2022/03/07 03:17:53;;;;;;;6.68;1.95;;;-1.20;97.20;-1.80;97766.00;;;;4925674;28;89402;-69
2022/03/07 03:20:20;;;;;;;5.57;1.63;;;-1.30;97.20;-1.80;97762.00;;;;4945389;28;87367;-64
2022/03/07 03:22:46;;;;;;;6.68;1.90;;;-1.30;97.20;-1.70;97758.00;;;;4942249;28;87073;-64
2022/03/07 03:25:16;;;;;;;6.97;1.90;;;-1.20;97.30;-1.70;97761.00;;;;4943723;28;87794;-64
2022/03/07 03:27:43;;;;;;;3.58;1.60;;;-1.30;97.60;-1.80;97758.00;;;;4940626;28;87450;-64
2022/03/07 03:30:12;;;;;;;7.82;1.88;;;-1.30;97.50;-1.80;97768.00;;;;4941896;28;87979;-63
2022/03/07 03:32:38;;;;;;;4.32;1.50;;;-1.30;97.40;-1.80;97759.00;;;;4942515;28;86332;-64
2022/03/07 03:35:06;;;;;;;4.70;1.83;;;-1.30;97.40;-1.80;97758.00;;;;4941130;28;88726;-64
2022/03/07 03:37:32;;;;;;;5.55;1.45;;;-1.30;97.50;-1.80;97765.00;;;;4942609;28;87042;-69
2022/03/07 03:39:58;;;;;;;5.65;1.50;;;-1.30;97.50;-1.80;97759.00;;;;4945156;28;88004;-68
2022/03/07 03:42:25;;;;;;;3.88;1.83;;;-1.30;97.50;-1.80;97753.00;;;;4947146;28;87481;-67
2022/03/07 03:44:54;;;;;;;6.57;1.80;;;-1.30;97.50;-1.80;97755.00;;;;4943758;28;87747;-68
2022/03/07 03:47:20;;;;;;;3.90;1.50;;;-1.30;97.50;-1.80;97757.00;;;;4942189;28;87030;-68
2022/03/07 03:49:47;;;;;;;4.82;1.77;;;-1.30;97.60;-1.80;97767.00;;;;4944691;28;87103;-67
2022/03/07 03:52:13;;;;;;;5.05;1.90;;;-1.30;97.70;-1.80;97757.00;;;;4943996;28;87692;-67
2022/03/07 03:54:39;;;;;;;4.35;1.58;;;-1.30;97.70;-1.80;97767.00;;;;4943442;28;87481;-68
2022/03/07 03:57:06;;;;;;;5.65;1.92;;;-1.30;97.70;-1.70;97754.00;;;;4928625;28;90707;-68
2022/03/07 03:59:33;;;;;;;4.30;1.65;;;-1.30;97.70;-1.70;97754.00;;;;4943343;28;87461;-68
2022/03/07 04:01:59;;;;;;;7.10;1.80;;;-1.30;97.70;-1.70;97753.00;;;;4945296;28;86998;-70
2022/03/07 04:04:26;;;;;;;4.72;1.40;;;-1.20;97.70;-1.70;97754.00;;;;4944633;28;88748;-68
2022/03/07 04:06:52;;;;;;;8.85;1.70;;;-1.20;97.70;-1.70;97750.00;;;;4944908;28;88930;-68
2022/03/07 04:09:21;;;;;;;4.25;1.65;;;-1.20;97.70;-1.70;97749.00;;;;4945396;28;88895;-68
2022/03/07 04:11:49;;;;;;;8.73;2.05;;;-1.20;97.70;-1.70;97750.00;;;;4943221;28;87017;-68
2022/03/07 04:14:16;;;;;;;5.53;1.60;;;-1.20;97.70;-1.70;97750.00;;;;4941457;28;87694;-69
2022/03/07 04:16:43;;;;;;;7.20;1.75;;;-1.20;97.70;-1.70;97745.00;;;;4944074;28;87424;-68
2022/03/07 04:19:12;;;;;;;8.18;1.60;;;-1.20;97.60;-1.70;97751.00;;;;4945987;28;87356;-65
2022/03/07 04:21:40;;;;;;;2.20;1.10;;;-1.20;97.70;-1.70;97749.00;;;;4940932;28;86657;-70
2022/03/07 04:24:08;;;;;;;3.78;1.67;;;-1.20;97.60;-1.70;97756.00;;;;4943711;28;87499;-71
2022/03/07 04:26:35;;;;;;;3.83;1.60;;;-1.20;97.60;-1.70;97761.00;;;;4942780;28;87334;-70
2022/03/07 04:29:05;;;;;;;6.53;1.85;;;-1.20;97.60;-1.70;97749.00;;;;4924857;28;87987;-68
2022/03/07 04:31:32;;;;;;;3.92;1.35;;;-1.20;97.60;-1.70;97750.00;;;;4943636;28;87104;-67
2022/03/07 04:33:59;;;;;;;7.15;1.73;;;-1.20;97.60;-1.70;97758.00;;;;4942655;28;87805;-67
2022/03/07 04:36:25;;;;;;;4.05;1.23;;;-1.20;97.70;-1.70;97753.00;;;;4937025;28;88808;-68
2022/03/07 04:38:51;;;;;;;4.68;1.95;;;-1.20;97.70;-1.70;97753.00;;;;4940649;28;87325;-67
2022/03/07 04:41:18;;;;;;;4.40;1.58;;;-1.20;97.60;-1.70;97752.00;;;;4941564;28;87038;-67
2022/03/07 04:43:45;;;;;;;6.35;1.92;;;-1.20;97.60;-1.70;97760.00;;;;4942074;28;87723;-69
2022/03/07 04:46:11;;;;;;;7.47;1.90;;;-1.10;97.60;-1.70;97756.00;;;;4942044;28;88577;-67
2022/03/07 04:48:38;;;;;;;6.13;1.85;;;-1.20;97.60;-1.60;97749.00;;;;4943239;28;87069;-67
2022/03/07 04:51:04;;;;;;;5.22;1.52;;;-1.10;97.70;-1.60;97758.00;;;;4943095;28;87303;-68
2022/03/07 04:53:31;;;;;;;7.38;2.00;;;-1.10;97.60;-1.60;97755.00;;;;4941784;28;88795;-69
2022/03/07 04:55:57;;;;;;;4.85;1.63;;;-1.10;97.60;-1.60;97750.00;;;;4941348;28;89317;-68
2022/03/07 04:58:24;;;;;;;4.57;2.00;;;-1.10;97.60;-1.60;97747.00;;;;4942301;28;88056;-69
2022/03/07 05:00:52;;;;;;;4.18;1.80;;;-1.10;97.60;-1.60;97748.00;;;;4942146;28;87084;-68
2022/03/07 05:03:18;;;;;;;9.02;2.17;;;-1.10;97.70;-1.60;97748.00;;;;4941515;28;89586;-68
2022/03/07 05:05:45;;;;;;;8.85;2.55;;;-1.10;97.70;-1.60;97758.00;;;;4940475;28;90620;-68
2022/03/07 05:08:11;;;;;;;5.13;1.98;;;-1.10;97.70;-1.60;97743.00;;;;4942691;28;86977;-68
2022/03/07 05:10:37;;;;;;;5.25;2.03;;;-1.10;97.60;-1.50;97746.00;;;;4940906;28;86131;-68
2022/03/07 05:13:04;;;;;;;7.15;2.20;;;-1.10;97.50;-1.50;97741.00;;;;4940168;28;88179;-69
2022/03/07 05:15:30;;;;;;;5.75;1.80;;;-1.00;97.60;-1.50;97743.00;;;;4941863;28;87515;-68
2022/03/07 05:17:57;;;;;;;7.53;2.47;;;-1.00;97.60;-1.40;97747.00;;;;4940174;28;88219;-69
2022/03/07 05:20:25;;;;;;;8.52;2.15;;;-0.90;97.40;-1.40;97747.00;;;;4925515;28;87127;-68
2022/03/07 05:22:53;;;;;;;4.82;2.00;;;-0.90;97.40;-1.40;97748.00;;;;4940194;28;90528;-68
2022/03/07 05:25:20;;;;;;;7.28;2.28;;;-0.90;97.50;-1.40;97755.00;;;;4940057;28;90237;-69
2022/03/07 05:27:48;;;;;;;4.43;2.20;;;-0.90;97.40;-1.40;97751.00;;;;4941796;28;88155;-68
2022/03/07 05:30:20;;;;;;;7.75;2.42;;;-0.90;97.30;-1.40;97747.00;;;;4941486;28;87462;-68
2022/03/07 05:32:52;;;;;;;5.68;2.58;;;-0.90;97.30;-1.40;97761.00;;;;4942004;28;88182;-68
2022/03/07 05:35:21;;;;;;;7.05;2.40;;;-0.90;97.30;-1.30;97747.00;;;;4939400;28;87212;-69
2022/03/07 05:37:48;;;;;;;6.78;2.58;;;-0.80;97.20;-1.30;97767.00;;;;4941457;28;90704;-69
2022/03/07 05:40:15;;;;;;;9.55;2.53;;;-0.80;97.20;-1.30;97759.00;;;;4941019;28;87051;-68
2022/03/07 05:42:42;;;;;;;7.13;2.70;;;-0.80;97.10;-1.30;97762.00;;;;4942752;28;88835;-68
2022/03/07 05:45:11;;;;;;;7.20;2.50;;;-0.80;97.10;-1.20;97760.00;;;;4941638;28;88218;-69
2022/03/07 05:47:38;;;;;;;7.07;3.05;;;-0.80;97.10;-1.20;97773.00;;;;4938388;28;87766;-68
2022/03/07 05:50:06;;;;;;;6.57;2.60;;;-0.70;97.10;-1.20;97770.00;;;;4942088;28;87409;-67
2022/03/07 05:52:32;;;;;;;9.27;2.65;;;-0.70;97.10;-1.20;97766.00;;;;4946088;28;87346;-67
2022/03/07 05:54:58;;;;;;;8.80;2.70;;;-0.70;97.00;-1.10;97779.00;;;;4943700;28;87288;-67
2022/03/07 05:57:25;;;;;;;6.75;3.20;;;-0.70;97.00;-1.10;97762.00;;;;4944630;28;87289;-67
2022/03/07 05:59:51;;;;;;;5.30;2.70;;;-0.60;97.00;-1.10;97760.00;;;;4929171;28;86319;-67
2022/03/07 06:02:17;;;;;;;5.60;1.88;;;-0.60;96.90;-1.10;97775.00;;;;4944345;28;88399;-68
2022/03/07 06:04:44;;;;;;;7.10;2.75;;;-0.70;96.70;-1.10;97772.00;;;;4944152;28;87561;-68
2022/03/07 06:07:10;;;;;;;6.18;2.17;;;-0.60;96.80;-1.00;97768.00;;;;4942436;28;88071;-68
2022/03/07 06:09:37;;;;;;;9.10;2.53;;;-0.60;96.70;-1.00;97774.00;;;;4943604;28;87201;-68
2022/03/07 06:12:05;;;;;;;6.10;2.40;;;-0.50;96.70;-0.90;97769.00;;;;4944815;28;88952;-69
2022/03/07 06:14:31;;;;;;;7.50;2.05;;;-0.50;96.60;-0.90;97777.00;;;;4944804;28;87430;-68
2022/03/07 06:16:58;;;;;;;6.20;2.10;;;-0.50;96.60;-0.90;97774.00;;;;4944491;28;87113;-67
2022/03/07 06:19:24;;;;;;;4.45;2.20;;;-0.50;96.50;-0.90;97788.00;;;;4942367;28;87090;-69
2022/03/07 06:21:50;;;;;;;4.47;2.30;;;-0.50;96.50;-0.80;97786.00;;;;4944001;28;89140;-68
2022/03/07 06:24:16;;;;;;;7.05;2.50;;;-0.40;96.50;-0.80;97781.00;;;;4943559;28;87399;-68
2022/03/07 06:26:43;;;;;;;6.55;2.72;;;-0.40;96.40;-0.80;97785.00;;;;4942698;28;87322;-68
2022/03/07 06:29:09;;;;;;;8.90;2.15;;;-0.40;96.30;-0.80;97782.00;;;;4943795;28;87125;-67
2022/03/07 06:31:35;;;;;;;7.55;2.40;;;-0.40;96.30;-0.80;97783.00;;;;4943136;28;88341;-67
2022/03/07 06:34:03;;;;;;;7.43;2.47;;;-0.40;96.40;-0.80;97781.00;;;;4941015;28;90622;-68
2022/03/07 06:36:29;;;;;;;10.15;2.35;;;-0.40;96.30;-0.70;97775.00;;;;4943118;28;87127;-67
2022/03/07 06:38:56;;;;;;;7.07;2.40;;;-0.30;96.20;-0.70;97791.00;;;;4943620;28;87539;-67
2022/03/07 06:41:22;;;;;;;8.95;2.30;;;-0.20;96.20;-0.70;97787.00;;;;4943103;28;87066;-67
2022/03/07 06:43:48;;;;;;;6.70;2.22;;;-0.20;96.10;-0.70;97786.00;;;;4944750;28;86995;-67
2022/03/07 06:46:14;;;;;;;9.73;2.63;;;-0.30;95.90;-0.70;97791.00;;;;4943908;28;87198;-68
2022/03/07 06:48:41;;;;;;;9.05;3.70;;;-0.30;96.10;-0.70;97782.00;;;;4942737;28;86877;-67
2022/03/07 06:51:07;;;;;;;11.57;2.97;;;-0.30;96.20;-0.60;97781.00;;;;4943224;28;87149;-67
2022/03/07 06:53:35;;;;;;;6.97;2.90;;;-0.20;96.20;-0.60;97800.00;;;;4943110;28;87147;-69
2022/03/07 06:56:01;;;;;;;8.13;2.85;;;-0.20;96.10;-0.60;97792.00;;;;4940903;28;88081;-68
2022/03/07 06:58:28;;;;;;;8.80;2.20;;;-0.20;96.10;-0.60;97792.00;;;;4943876;28;87119;-70
2022/03/07 07:00:54;;;;;;;7.07;2.30;;;-0.20;95.90;-0.60;97800.00;;;;4943096;28;87827;-68
2022/03/07 07:03:20;;;;;;;5.30;2.30;;;-0.20;95.80;-0.60;97787.00;;;;4943264;28;87308;-68
2022/03/07 07:05:47;;;;;;;8.77;2.55;;;-0.20;95.90;-0.60;97783.00;;;;4942323;28;87904;-69
2022/03/07 07:08:13;;;;;;;8.10;2.58;;;-0.20;95.90;-0.50;97790.00;;;;4943557;28;87393;-69
2022/03/07 07:10:39;;;;;;;6.18;2.28;;;-0.10;95.80;-0.50;97797.00;;;;4940083;28;88712;-69
2022/03/07 07:13:06;;;;;;;5.63;2.50;;;-0.10;95.80;-0.50;97789.00;;;;4944079;28;87343;-68
2022/03/07 07:15:32;;;;;;;9.43;2.80;;;-0.10;95.60;-0.50;97787.00;;;;4926598;28;87411;-67
2022/03/07 07:17:58;;;;;;;7.80;2.75;;;0.00;95.70;-0.50;97792.00;;;;4926237;28;87059;-67
2022/03/07 07:20:25;;;;;;;6.28;2.47;;;-0.10;95.80;-0.40;97792.00;;;;4940374;28;90277;-67
2022/03/07 07:22:51;;;;;;;8.00;2.78;;;0.00;95.80;-0.40;97791.00;;;;4941668;28;88304;-67
2022/03/07 07:25:17;;;;;;;6.05;2.45;;;0.00;95.70;-0.40;97791.00;;;;4943934;28;87174;-69
2022/03/07 07:27:44;;;;;;;12.40;3.35;;;0.00;95.70;-0.40;97783.00;;;;4942897;28;87947;-68
2022/03/07 07:30:11;;;;;;;9.57;2.72;;;0.00;95.80;-0.40;97788.00;;;;4939651;28;90242;-67
2022/03/07 07:32:41;;;;;;;9.25;2.90;;;-0.10;95.80;-0.40;97797.00;;;;4941940;28;88384;-68
2022/03/07 07:35:09;;;;;;;8.02;3.03;;;0.00;95.80;-0.40;97784.00;;;;4943237;28;87410;-67
2022/03/07 07:37:35;;;;;;;11.45;2.75;;;0.00;95.80;-0.40;97785.00;;;;4925939;28;86887;-67
2022/03/07 07:40:03;;;;;;;8.93;2.67;;;0.00;95.80;-0.40;97788.00;;;;4941747;28;87873;-67
2022/03/07 07:42:30;;;;;;;6.32;2.45;;;0.00;95.70;-0.40;97784.00;;;;4945731;28;87035;-68
2022/03/07 07:44:56;;;;;;;7.78;2.95;;;-0.10;95.70;-0.40;97778.00;;;;4940662;28;88024;-67
2022/03/07 07:47:22;;;;;;;5.10;2.70;;;0.00;95.90;-0.40;97789.00;;;;4942787;28;86993;-67
2022/03/07 07:49:49;;;;;;;6.38;2.67;;;0.00;95.80;-0.30;97790.00;;;;4941924;28;87561;-67
2022/03/07 07:52:15;;;;;;;5.22;2.55;;;0.10;95.60;-0.20;97789.00;;;;4943047;28;87195;-67
2022/03/07 07:54:41;;;;;;;7.32;3.03;;;0.10;95.60;-0.10;97787.00;;;;4939922;28;86991;-67
2022/03/07 07:57:10;;;;;;;8.25;2.90;;;0.30;95.60;0.00;97791.00;;;;4941642;28;87867;-67
2022/03/07 07:59:36;;;;;;;16.85;10.13;;;0.30;95.50;0.10;97782.00;;;;4942940;28;87434;-66
2022/03/07 08:02:03;;;;;;;6.85;3.42;;;0.40;95.30;0.10;97782.00;;;;4941728;28;87113;-68
2022/03/07 08:04:29;;;;;;;7.50;2.80;;;0.40;95.20;0.20;97792.00;;;;4941291;28;87473;-68
2022/03/07 08:06:56;;;;;;;9.13;3.20;;;0.50;95.00;0.20;97787.00;;;;4944923;28;87605;-70
2022/03/07 08:09:22;;;;;;;10.80;3.05;;;0.50;94.90;0.20;97789.00;;;;4939960;28;89068;-70
2022/03/07 08:11:49;;;;;;;7.38;2.25;;;0.50;94.90;0.20;97781.00;;;;4942262;28;91084;-69
2022/03/07 08:14:15;;;;;;;7.78;3.00;;;0.50;94.70;0.10;97782.00;;;;4944442;28;87021;-69
2022/03/07 08:16:42;;;;;;;10.82;3.35;;;0.50;94.90;0.10;97780.00;;;;4941699;28;87557;-65
2022/03/07 08:19:08;;;;;;;6.10;2.95;;;0.50;95.10;0.20;97781.00;;;;4939210;23;87636;-65
2022/03/07 08:21:34;;;;;;;7.53;2.63;;;0.60;95.10;0.30;97772.00;;;;4947458;28;87522;-66
2022/03/07 08:24:01;;;;;;;7.07;3.00;;;0.60;94.90;0.40;97775.00;;;;4932023;28;87551;-66
2022/03/07 08:26:28;;;;;;;8.18;2.33;;;0.70;94.90;0.60;97771.00;;;;4925148;28;86307;-66
2022/03/07 08:28:54;;;;;;;7.63;2.25;;;0.80;94.30;0.60;97771.00;;;;4928770;28;87611;-65
2022/03/07 08:31:21;;;;;;;3.88;1.92;;;0.90;94.20;0.70;97785.00;;;;4943531;28;87396;-66
2022/03/07 08:33:47;;;;;;;3.80;2.03;;;0.90;94.10;0.60;97783.00;;;;4936781;28;87976;-65
2022/03/07 08:36:13;;;;;;;8.95;2.85;;;0.90;94.20;0.60;97772.00;;;;4929387;28;87526;-66
2022/03/07 08:38:40;;;;;;;9.05;2.53;;;0.80;94.30;0.60;97772.00;;;;4926071;28;87820;-66
2022/03/07 08:41:07;;;;;;;5.80;2.40;;;0.80;94.30;0.60;97772.00;;;;4930798;28;88399;-66
2022/03/07 08:43:33;;;;;;;4.97;2.20;;;0.90;94.40;0.70;97779.00;;;;4946945;28;87029;-64
2022/03/07 08:46:00;;;;;;;4.45;1.92;;;1.00;94.10;0.80;97778.00;;;;4932835;28;87512;-65
2022/03/07 08:48:28;;;;;;;6.55;2.50;;;1.00;94.00;0.90;97786.00;;;;4929735;28;87732;-65
2022/03/07 08:50:55;;;;;;;7.28;2.40;;;1.10;94.00;0.90;97777.00;;;;4933375;28;86188;-65
2022/03/07 08:53:22;;;;;;;7.00;2.67;;;1.10;94.00;0.90;97785.00;;;;4935788;28;87014;-66
2022/03/07 08:55:48;;;;;;;6.22;2.50;;;1.10;94.20;0.80;97791.00;;;;4931053;28;88631;-65
2022/03/07 08:58:14;;;;;;;8.52;2.30;;;1.00;93.90;0.70;97790.00;;;;4928351;28;88708;-66
2022/03/07 09:00:41;;;;;;;9.75;3.72;;;0.90;93.90;0.80;97784.00;;;;4927499;28;88329;-65
2022/03/07 09:03:07;;;;;;;3.50;1.95;;;1.00;93.90;0.90;97783.00;;;;4929027;28;87130;-66
2022/03/07 09:05:35;;;;;;;5.78;2.20;;;1.10;93.70;0.80;97792.00;;;;4926585;28;87087;-65
2022/03/07 09:08:02;;;;;;;6.25;2.53;;;1.00;93.60;0.80;97784.00;;;;4923189;28;87358;-65
2022/03/07 09:10:29;;;;;;;5.60;1.73;;;1.00;93.70;0.90;97779.00;;;;4911418;28;88508;-64
2022/03/07 09:12:55;;;;;;;7.18;2.33;;;1.10;93.50;1.00;97780.00;;;;4941671;28;87158;-64
2022/03/07 09:15:22;;;;;;;5.88;2.20;;;1.30;93.40;1.10;97768.00;;;;4926430;28;86371;-65
2022/03/07 09:17:48;;;;;;;8.15;2.53;;;1.30;93.40;1.30;97769.00;;;;4930127;28;88881;-64
2022/03/07 09:20:17;;;;;;;7.70;2.10;;;1.50;93.40;1.40;97773.00;;;;4924181;28;87889;-65
2022/03/07 09:22:44;;;;;;;7.35;2.20;;;1.60;93.00;1.50;97776.00;;;;4923601;28;87993;-67
2022/03/07 09:25:12;;;;;;;7.60;2.25;;;1.70;92.90;1.50;97778.00;;;;4921935;28;87093;-65
2022/03/07 09:27:39;;;;;;;4.55;1.83;;;1.70;92.80;1.70;97791.00;;;;4926590;28;87661;-65
2022/03/07 09:30:07;;;;;;;9.75;2.45;;;1.90;92.70;1.50;97773.00;;;;4942695;28;87749;-66
2022/03/07 09:32:33;;;;;;;6.65;2.20;;;1.60;92.90;1.40;97781.00;;;;4930578;28;87176;-68
2022/03/07 09:35:00;;;;;;;5.70;1.95;;;1.50;92.90;1.40;97776.00;;;;4932660;28;87447;-65
2022/03/07 09:37:26;;;;;;;4.10;2.10;;;1.50;92.60;1.20;97785.00;;;;4927974;28;88771;-67
2022/03/07 09:39:52;;;;;;;7.10;2.55;;;1.30;93.20;1.20;97775.00;;;;4926225;28;87413;-64
2022/03/07 09:42:19;;;;;;;5.93;1.67;;;1.30;93.60;1.20;97759.00;;;;4924530;28;87724;-67
2022/03/07 09:44:45;;;;;;;5.68;1.52;;;1.40;93.30;1.00;97770.00;;;;4920152;28;87130;-65
2022/03/07 09:47:12;;;;;;;7.43;1.42;;;1.30;93.10;1.00;97775.00;;;;4909466;28;89585;-65
2022/03/07 09:49:38;;;;;;;3.67;1.27;;;1.30;93.10;1.10;97768.00;;;;4942986;28;90161;-65
2022/03/07 09:52:05;;;;;;;5.22;1.55;;;1.30;92.80;1.00;97779.00;;;;4941199;28;87447;-65
2022/03/07 09:54:31;;;;;;;4.03;1.65;;;1.20;92.80;0.90;97767.00;;;;4924582;28;87278;-66
2022/03/07 09:56:58;;;;;;;7.28;2.00;;;1.20;93.20;0.90;97762.00;;;;4929654;28;88089;-65
2022/03/07 09:59:25;;;;;;;5.45;1.90;;;1.10;93.30;1.00;97769.00;;;;4927313;28;87677;-65
2022/03/07 10:02:12;;;;;;;6.78;2.30;;;1.20;93.70;1.00;97773.00;;;;4924750;28;87408;-65
2022/03/07 10:04:46;;;;;;;5.80;1.60;;;1.20;93.70;1.00;97759.00;;;;4927354;28;86919;-66
2022/03/07 10:07:13;;;;;;;3.78;1.55;;;1.30;93.20;1.10;97761.00;;;;4923543;28;87705;-65
2022/03/07 10:09:40;;;;;;;3.42;1.42;;;1.40;92.60;1.20;97770.00;;;;4925412;28;87542;-66
2022/03/07 10:12:07;;;;;;;3.72;1.50;;;1.40;92.50;1.30;97772.00;;;;4927173;28;88212;-66
2022/03/07 10:14:45;;;;;;;4.40;1.80;;;1.60;92.20;1.50;97768.00;;;;4931569;28;88001;-65
2022/03/07 10:17:26;;;;;;;4.93;1.50;;;1.80;91.60;1.80;97767.00;;;;4921355;28;88125;-66
2022/03/07 10:19:55;;;;;;;8.00;2.00;;;2.00;91.00;1.90;97757.00;;;;4925203;28;87596;-65
2022/03/07 10:22:25;;;;;;;6.53;2.55;;;2.00;90.90;2.20;97751.00;;;;4925390;28;87628;-66
2022/03/07 10:25:07;;;;;;;8.45;2.58;;;2.30;90.60;2.30;97748.00;;;;4924741;28;86953;-65
2022/03/07 10:27:37;;;;;;;5.40;2.28;;;2.30;90.10;2.40;97753.00;;;;4925982;28;88273;-66
2022/03/07 10:30:21;;;;;;;5.95;2.25;;;2.50;90.30;2.50;97773.00;;;;4926536;28;87535;-65
2022/03/07 10:33:05;;;;;;;6.60;1.85;;;2.70;90.10;2.40;97766.00;;;;4925757;28;87433;-66
2022/03/07 10:35:37;;;;;;;6.55;1.85;;;2.60;90.10;2.30;97781.00;;;;4926104;28;87051;-65
2022/03/07 10:38:11;;;;;;;7.90;2.05;;;2.50;90.40;2.20;97770.00;;;;4926478;28;88927;-70
2022/03/07 10:40:42;;;;;;;6.68;1.80;;;2.40;91.00;2.20;97765.00;;;;4942725;28;91046;-70
2022/03/07 10:43:09;;;;;;;6.43;1.63;;;2.40;90.90;2.20;97775.00;;;;4927496;28;87209;-70
2022/03/07 10:45:49;;;;;;;4.05;1.40;;;2.40;90.80;2.20;97777.00;;;;4932688;28;87109;-71
2022/03/07 10:48:17;;;;;;;5.18;1.88;;;2.50;90.30;2.30;97773.00;;;;4924546;28;88618;-69
2022/03/07 10:51:02;;;;;;;6.18;2.05;;;2.50;90.00;2.40;97762.00;;;;4934631;28;88951;-70
2022/03/07 10:53:30;;;;;;;5.38;1.80;;;2.60;89.70;2.60;97758.00;;;;4933348;28;87394;-70
2022/03/07 10:56:00;;;;;;;7.25;1.63;;;2.70;89.40;2.70;97769.00;;;;4929897;28;86760;-70
2022/03/07 10:58:28;;;;;;;8.38;1.63;;;2.90;90.00;2.80;97760.00;;;;4936433;28;89881;-71
2022/03/07 11:00:59;;;;;;;3.75;1.60;;;3.00;89.30;2.60;97761.00;;;;4928618;28;87395;-72